Wetterstation Vordersexau
Wetterdaten: Mrz 2018
Datum Temp. A. Feuchte A. Luftdruck Regen Wind Richtung Taupunkt Windchill Windben
01.03.2018 -1,0 C 55 % 998,8 hPa 0,0 l/m 0,3 km/h S-SW -9,0 C -1,1 C 0,2 km/h
02.03.2018 -0,6 C 74 % 993,2 hPa 0,0 l/m 0,5 km/h S -4,8 C -0,8 C 0,3 km/h
03.03.2018 -0,4 C 85 % 994,6 hPa 3,6 l/m 0,0 km/h W-SW -2,6 C -0,4 C 0,0 km/h
04.03.2018 6,6 C 76 % 995,6 hPa 2,6 l/m 1,0 km/h NO 2,5 C 6,3 C 0,6 km/h
05.03.2018 7,6 C 74 % 992,7 hPa 0,0 l/m 0,0 km/h NO 2,9 C 7,6 C 0,0 km/h
06.03.2018 6,3 C 79 % 989,9 hPa 2,6 l/m 1,1 km/h NO 2,8 C 6,1 C 0,6 km/h
07.03.2018 6,5 C 75 % 996,8 hPa 0,5 l/m 20,2 km/h SW 2,3 C -0,4 C 11,2 km/h
08.03.2018 9,4 C 62 % 1004,1 hPa 0,0 l/m 17,6 km/h S-SW 2,1 C 3,9 C 9,8 km/h
09.03.2018 11,4 C 58 % 1005,9 hPa 0,0 l/m 11,6 km/h S 3,4 C 8,1 C 6,5 km/h
10.03.2018 11,6 C 77 % 1002,5 hPa 1,6 l/m 2,2 km/h S-SO 7,6 C 11,1 C 1,2 km/h
11.03.2018 9,8 C 81 % 995,3 hPa 1,6 l/m 0,1 km/h SO 6,7 C 9,8 C 0,1 km/h
12.03.2018 9,9 C 77 % 996,3 hPa 3,6 l/m 16,2 km/h S-SW 6,0 C 5,3 C 9,0 km/h
13.03.2018 7,4 C 80 % 1005,9 hPa 4,1 l/m 28,0 km/h W-SW 4,2 C -1,0 C 15,6 km/h
14.03.2018 10,2 C 69 % 1007,6 hPa 0,0 l/m 2,2 km/h S 4,1 C 9,9 C 1,2 km/h
15.03.2018 4,8 C 83 % 995,5 hPa 0,5 l/m 3,0 km/h W 2,2 C 4,0 C 1,7 km/h
16.03.2018 9,3 C 74 % 999,4 hPa 0,5 l/m 7,6 km/h O-NO 4,4 C 7,0 C 4,2 km/h
17.03.2018 3,7 C 82 % 994,8 hPa 0,0 l/m 0,9 km/h O-NO 0,9 C 3,5 C 0,5 km/h
18.03.2018 0,5 C 84 % 998,4 hPa 3,1 l/m 1,2 km/h O -1,8 C 0,2 C 0,7 km/h
19.03.2018 1,5 C 80 % 1004,8 hPa 0,0 l/m 0,0 km/h SW -1,6 C 1,5 C 0,0 km/h
20.03.2018 2,7 C 64 % 1013,3 hPa 0,0 l/m 3,5 km/h NO -3,7 C 1,7 C 1,9 km/h
21.03.2018 3,6 C 58 % 1023,0 hPa 0,0 l/m 5,2 km/h NO -4,9 C 2,0 C 2,9 km/h
22.03.2018 1,8 C 71 % 1017,5 hPa 0,5 l/m 8,8 km/h SW -3,3 C -1,5 C 4,9 km/h
23.03.2018 5,2 C 78 % 1006,2 hPa 0,5 l/m 0,3 km/h NO 1,5 C 5,2 C 0,2 km/h
24.03.2018 5,0 C 74 % 998,1 hPa 0,0 l/m 0,9 km/h NO 0,4 C 4,6 C 0,5 km/h
25.03.2018 8,5 C 65 % 1003,3 hPa 0,0 l/m 0,2 km/h NO 1,2 C 8,5 C 0,1 km/h
26.03.2018 6,9 C 72 % 1011,3 hPa 1,6 l/m 0,7 km/h NO 1,8 C 6,8 C 0,4 km/h
27.03.2018 8,2 C 72 % 1011,9 hPa 1,6 l/m 7,6 km/h O-SO 2,9 C 6,0 C 4,2 km/h
28.03.2018 10,0 C 81 % 1004,5 hPa 6,7 l/m 20,1 km/h SW 6,9 C 4,1 C 11,2 km/h
29.03.2018 7,1 C 75 % 1005,4 hPa 0,5 l/m 4,1 km/h N-NO 2,8 C 6,1 C 2,3 km/h
30.03.2018 6,7 C 78 % 999,9 hPa 2,6 l/m 2,8 km/h NO 3,0 C 6,0 C 1,6 km/h
31.03.2018 8,7 C 70 % 998,0 hPa 0,0 l/m 0,4 km/h O-NO 3,0 C 8,6 C 0,2 km/h
Min-Datum 22.03.18 21.03.18 06.03.18 18 Tage 01.03.18 - 01.03.18 22.03.18 01.03.18
Min-Zeit 05:53 15:53 03:53 - 00:53 - 00:53 17:53 00:53
Minimum -5,1 C 25 % 988,7 hPa - 0,0 km/h - -12,2 C -9,3 C 0,0 km/h
Max-Datum 14.03.18 02.03.18 21.03.18 28.03.18 13.03.18 - 10.03.18 14.03.18 13.03.18
Max-Zeit 15:53 23:53 10:53 22:53 06:53 - 11:53 15:53 06:53
Maximum 23,2 C 86 % 1024,2 hPa 6,7 l/m 81,6 km/h
W-SW
- 10,9 C 21,9 C 45,4 km/h
W-SW
Durchschnitt 6,1 C 74 % 1002,1 hPa #38,3 l/m 5,4 km/h NO 1,4 C 4,5 C 3,0 km/h

Durchschnitt Minimum Temp.1,3 C
Durchschnitt Maximum Temp.13,0 C
www.sexauwetter.de